createdAt,value
2022-12-26T00:01:54.353Z,79.95
2022-12-26T00:04:50.107Z,79.99
2022-12-26T00:07:10.657Z,79.92
2022-12-26T00:09:38.511Z,79.84
2022-12-26T00:12:06.542Z,79.85
2022-12-26T00:14:34.383Z,79.87
2022-12-26T00:17:02.199Z,79.81
2022-12-26T00:19:30.029Z,79.65
2022-12-26T00:21:57.988Z,79.85
2022-12-26T00:24:25.834Z,79.74
2022-12-26T00:26:53.662Z,79.87
2022-12-26T00:29:22.874Z,79.73
2022-12-26T00:31:50.894Z,79.64
2022-12-26T00:34:18.824Z,79.66
2022-12-26T00:36:46.677Z,79.83
2022-12-26T00:39:14.532Z,79.75
2022-12-26T00:41:42.360Z,79.79
2022-12-26T00:44:10.138Z,79.80
2022-12-26T00:46:38.004Z,79.84
2022-12-26T00:49:05.909Z,79.81
2022-12-26T00:51:33.855Z,79.64
2022-12-26T00:54:01.670Z,79.70
2022-12-26T00:56:30.291Z,79.71
2022-12-26T00:58:58.181Z,79.76
2022-12-26T01:01:26.157Z,79.65
2022-12-26T01:03:54.142Z,79.82
2022-12-26T01:06:22.072Z,79.71
2022-12-26T01:08:49.995Z,79.64
2022-12-26T01:11:40.383Z,79.60
2022-12-26T01:14:13.849Z,79.63
2022-12-26T01:16:43.430Z,79.47
2022-12-26T01:19:12.942Z,79.47
2022-12-26T01:21:43.033Z,79.66
2022-12-26T01:24:11.001Z,79.67
2022-12-26T01:26:38.788Z,79.60
2022-12-26T01:29:06.732Z,79.60
2022-12-26T01:31:34.682Z,79.72
2022-12-26T01:34:02.585Z,79.73
2022-12-26T01:36:30.459Z,79.66
2022-12-26T01:38:58.291Z,79.73
2022-12-26T01:41:26.799Z,79.78
2022-12-26T01:44:04.066Z,79.79
2022-12-26T01:46:35.799Z,79.84
2022-12-26T01:49:21.375Z,79.94
2022-12-26T01:51:54.451Z,79.89
2022-12-26T01:54:40.248Z,79.81
2022-12-26T01:57:16.552Z,79.81
2022-12-26T01:59:46.731Z,79.81
2022-12-26T02:02:16.059Z,79.76
2022-12-26T02:05:06.920Z,79.72
2022-12-26T02:07:38.171Z,79.86
2022-12-26T02:10:15.254Z,79.95
2022-12-26T02:12:43.668Z,79.98
2022-12-26T02:15:15.565Z,79.90
2022-12-26T02:17:44.625Z,79.99
2022-12-26T02:20:29.830Z,80.01
2022-12-26T02:23:31.033Z,80.02
2022-12-26T02:26:37.244Z,80.07
2022-12-26T02:29:23.102Z,79.95
2022-12-26T02:32:29.519Z,80.07
2022-12-26T02:35:12.444Z,80.10
2022-12-26T02:38:15.577Z,80.10
2022-12-26T02:40:50.978Z,80.16
2022-12-26T02:43:22.132Z,80.13
2022-12-26T02:46:19.836Z,80.11
2022-12-26T02:48:58.384Z,80.05
2022-12-26T02:52:15.669Z,80.03
2022-12-26T02:55:23.801Z,80.12
2022-12-26T02:58:20.713Z,80.14
2022-12-26T03:01:11.047Z,80.13
2022-12-26T03:03:59.408Z,80.12
2022-12-26T03:06:52.051Z,80.04
2022-12-26T03:09:51.633Z,80.14
2022-12-26T03:12:56.798Z,80.17
2022-12-26T03:15:29.671Z,79.99
2022-12-26T03:18:02.909Z,80.08
2022-12-26T03:20:35.952Z,80.17
2022-12-26T03:23:08.747Z,80.12
2022-12-26T03:26:07.567Z,80.13
2022-12-26T03:28:35.612Z,80.14
2022-12-26T03:31:07.691Z,80.05
2022-12-26T03:33:58.378Z,80.02
2022-12-26T03:36:41.549Z,80.00
2022-12-26T03:39:43.735Z,80.07
2022-12-26T03:42:40.710Z,80.06
2022-12-26T03:45:52.089Z,80.05
2022-12-26T03:48:48.462Z,80.03
2022-12-26T03:51:44.201Z,80.06
2022-12-26T03:54:36.220Z,80.05
2022-12-26T03:57:31.183Z,80.02
2022-12-26T04:00:30.193Z,80.10
2022-12-26T04:03:24.342Z,79.99
2022-12-26T04:06:11.702Z,79.96
2022-12-26T04:09:25.603Z,79.94
2022-12-26T04:12:14.545Z,79.85
2022-12-26T04:15:04.679Z,80.04
2022-12-26T04:18:10.992Z,79.92
2022-12-26T04:21:04.595Z,80.05
2022-12-26T04:24:05.225Z,80.02
2022-12-26T04:27:07.932Z,79.97
2022-12-26T04:29:54.704Z,79.94
2022-12-26T04:33:21.640Z,79.85
2022-12-26T04:36:14.032Z,79.83
2022-12-26T04:39:06.747Z,79.80
2022-12-26T04:41:54.475Z,79.76
2022-12-26T04:44:24.487Z,79.85
2022-12-26T04:46:54.196Z,79.94
2022-12-26T04:49:41.067Z,79.87
2022-12-26T04:52:15.006Z,79.90
2022-12-26T04:54:43.408Z,79.83
2022-12-26T04:57:11.531Z,79.65
2022-12-26T04:59:39.480Z,79.88
2022-12-26T05:02:27.702Z,79.83
2022-12-26T05:05:14.004Z,79.69
2022-12-26T05:08:00.382Z,79.79
2022-12-26T05:10:29.402Z,79.79
2022-12-26T05:12:57.262Z,79.67
2022-12-26T05:15:25.270Z,79.78
2022-12-26T05:18:11.696Z,79.57
2022-12-26T05:20:58.807Z,79.63
2022-12-26T05:23:46.883Z,79.69
2022-12-26T05:26:37.320Z,79.58
2022-12-26T05:29:05.276Z,79.69
2022-12-26T05:31:36.464Z,79.61
2022-12-26T05:34:06.564Z,79.70
2022-12-26T05:36:39.298Z,79.66
2022-12-26T05:39:08.627Z,79.63
2022-12-26T05:41:37.381Z,79.54
2022-12-26T05:44:05.592Z,79.57
2022-12-26T05:46:34.441Z,79.63
2022-12-26T05:49:02.619Z,79.67
2022-12-26T05:51:30.749Z,79.56
2022-12-26T05:53:58.644Z,79.59
2022-12-26T05:56:26.733Z,79.65
2022-12-26T05:58:56.490Z,79.73
2022-12-26T06:01:25.783Z,79.72
2022-12-26T06:03:56.519Z,79.75
2022-12-26T06:06:25.762Z,79.66
2022-12-26T06:08:55.460Z,79.64
2022-12-26T06:11:26.555Z,79.66
2022-12-26T06:13:55.878Z,79.68
2022-12-26T06:16:24.301Z,79.55
2022-12-26T06:18:53.981Z,79.60
2022-12-26T06:21:24.522Z,79.65
2022-12-26T06:23:52.415Z,79.64
2022-12-26T06:26:20.267Z,79.55
2022-12-26T06:28:48.183Z,79.53
2022-12-26T06:31:20.926Z,79.56
2022-12-26T06:33:56.030Z,79.61
2022-12-26T06:36:26.244Z,79.50
2022-12-26T06:38:55.301Z,79.49
2022-12-26T06:41:25.071Z,79.56
2022-12-26T06:43:53.704Z,79.68
2022-12-26T06:46:24.365Z,79.71
2022-12-26T06:48:53.206Z,79.56
2022-12-26T06:51:24.001Z,79.60
2022-12-26T06:53:53.171Z,79.54
2022-12-26T06:56:24.588Z,79.65
2022-12-26T06:58:54.748Z,79.52
2022-12-26T07:01:23.755Z,79.58
2022-12-26T07:03:53.463Z,79.49
2022-12-26T07:06:33.497Z,79.66
2022-12-26T07:09:05.046Z,79.70
2022-12-26T07:11:36.426Z,79.74
2022-12-26T07:14:05.095Z,79.72
2022-12-26T07:16:37.614Z,79.80
2022-12-26T07:19:06.424Z,79.74
2022-12-26T07:21:40.014Z,79.77
2022-12-26T07:24:20.049Z,79.84
2022-12-26T07:26:49.891Z,79.84
2022-12-26T07:29:18.441Z,79.79
2022-12-26T07:31:46.402Z,79.95
2022-12-26T07:34:14.923Z,79.88
2022-12-26T07:36:42.751Z,79.86
2022-12-26T07:39:14.134Z,79.86
2022-12-26T07:42:00.389Z,79.81
2022-12-26T07:44:31.074Z,79.74
2022-12-26T07:47:00.181Z,79.71
2022-12-26T07:49:28.240Z,79.84
2022-12-26T07:51:56.199Z,79.70
2022-12-26T07:54:24.042Z,79.89
2022-12-26T07:56:51.899Z,79.87
2022-12-26T07:59:19.756Z,79.84
2022-12-26T08:01:47.940Z,79.86
2022-12-26T08:04:16.021Z,79.91
2022-12-26T08:06:46.072Z,79.73
2022-12-26T08:09:17.723Z,79.74
2022-12-26T08:11:45.728Z,79.55
2022-12-26T08:14:16.773Z,79.64
2022-12-26T08:16:51.191Z,79.64
2022-12-26T08:19:21.029Z,79.75
2022-12-26T08:21:48.877Z,79.78
2022-12-26T08:24:16.885Z,79.71
2022-12-26T08:26:44.697Z,79.76
2022-12-26T08:29:12.636Z,79.71
2022-12-26T08:31:40.546Z,79.51
2022-12-26T08:34:08.557Z,79.64
2022-12-26T08:36:36.618Z,79.69
2022-12-26T08:39:04.937Z,79.61
2022-12-26T08:41:33.179Z,79.69
2022-12-26T08:44:26.113Z,79.47
2022-12-26T08:46:48.933Z,79.46
2022-12-26T08:49:17.231Z,79.56
2022-12-26T08:51:45.053Z,79.55
2022-12-26T08:54:12.967Z,79.59
2022-12-26T08:56:40.957Z,79.69
2022-12-26T08:59:09.173Z,79.68
2022-12-26T09:01:37.886Z,79.74
2022-12-26T09:04:07.388Z,79.58
2022-12-26T09:06:37.944Z,79.70
2022-12-26T09:09:08.044Z,79.71
2022-12-26T09:11:35.911Z,79.55
2022-12-26T09:14:04.970Z,79.52
2022-12-26T09:16:49.213Z,79.54
2022-12-26T09:19:19.373Z,79.41
2022-12-26T09:21:49.046Z,79.34
2022-12-26T09:24:18.293Z,79.41
2022-12-26T09:26:46.972Z,79.32
2022-12-26T09:29:14.877Z,79.53
2022-12-26T09:31:43.187Z,79.91
2022-12-26T09:34:11.113Z,79.53
2022-12-26T09:36:39.485Z,79.51
2022-12-26T09:39:07.915Z,79.53
2022-12-26T09:41:41.774Z,79.68
2022-12-26T09:44:27.583Z,79.46
2022-12-26T09:47:21.639Z,79.52
2022-12-26T09:50:04.596Z,79.29
2022-12-26T09:52:38.257Z,79.45
2022-12-26T09:55:44.711Z,79.10
2022-12-26T09:58:31.264Z,79.10
2022-12-26T10:01:17.587Z,78.88
2022-12-26T10:03:52.775Z,78.82
2022-12-26T10:06:25.775Z,79.10
2022-12-26T10:08:59.714Z,79.12
2022-12-26T10:11:53.661Z,78.77
2022-12-26T10:14:37.688Z,78.51
2022-12-26T10:17:18.442Z,78.34
2022-12-26T10:20:11.396Z,78.25
2022-12-26T10:23:00.431Z,78.58
2022-12-26T10:25:48.411Z,78.61
2022-12-26T10:28:23.396Z,78.47
2022-12-26T10:30:54.986Z,79.58
2022-12-26T10:33:36.492Z,78.90
2022-12-26T10:36:04.713Z,79.58
2022-12-26T10:38:35.226Z,79.62
2022-12-26T10:41:18.531Z,79.31
2022-12-26T10:43:46.545Z,78.86
2022-12-26T10:46:30.213Z,78.52
2022-12-26T10:48:58.563Z,78.27
2022-12-26T10:51:27.315Z,77.46
2022-12-26T10:53:55.168Z,77.13
2022-12-26T10:56:25.815Z,77.00
2022-12-26T10:59:04.296Z,76.65
2022-12-26T11:01:36.400Z,76.77
2022-12-26T11:04:18.887Z,76.59
2022-12-26T11:06:52.765Z,76.35
2022-12-26T11:09:59.729Z,76.25
2022-12-26T11:12:40.745Z,76.03
2022-12-26T11:15:34.135Z,75.46
2022-12-26T11:18:19.788Z,75.48
2022-12-26T11:20:49.355Z,75.29
2022-12-26T11:23:17.223Z,75.41
2022-12-26T11:25:53.362Z,75.25
2022-12-26T11:28:37.196Z,74.88
2022-12-26T11:31:07.187Z,74.67
2022-12-26T11:33:47.619Z,74.72
2022-12-26T11:36:15.419Z,74.51
2022-12-26T11:38:45.518Z,74.45
2022-12-26T11:41:40.256Z,74.31
2022-12-26T11:44:11.413Z,74.30
2022-12-26T11:46:48.558Z,74.06
2022-12-26T11:49:55.150Z,73.88
2022-12-26T11:52:43.734Z,73.77
2022-12-26T11:55:24.018Z,73.38
2022-12-26T11:58:06.053Z,73.43
2022-12-26T12:00:37.141Z,73.35
2022-12-26T12:03:12.927Z,73.11
2022-12-26T12:06:02.845Z,73.17
2022-12-26T12:08:52.024Z,72.91
2022-12-26T12:11:28.663Z,72.80
2022-12-26T12:14:23.929Z,72.70
2022-12-26T12:17:03.720Z,72.55
2022-12-26T12:19:47.012Z,72.21
2022-12-26T12:22:30.170Z,72.24
2022-12-26T12:25:16.905Z,71.98
2022-12-26T12:28:09.132Z,72.13
2022-12-26T12:30:45.794Z,71.63
2022-12-26T12:33:38.375Z,71.68
2022-12-26T12:36:09.862Z,71.66
2022-12-26T12:38:56.852Z,71.66
2022-12-26T12:41:32.951Z,71.45
2022-12-26T12:44:45.041Z,71.43
2022-12-26T12:47:34.137Z,71.07
2022-12-26T12:50:18.448Z,70.98
2022-12-26T12:53:18.307Z,70.97
2022-12-26T12:55:46.122Z,70.82
2022-12-26T12:58:32.754Z,70.90
2022-12-26T13:01:13.770Z,70.73
2022-12-26T13:03:55.533Z,70.76
2022-12-26T13:06:31.475Z,70.86
2022-12-26T13:09:08.590Z,70.68
2022-12-26T13:11:40.793Z,70.67
2022-12-26T13:14:14.628Z,70.66
2022-12-26T13:16:52.039Z,70.53
2022-12-26T13:19:25.332Z,70.39
2022-12-26T13:21:58.435Z,70.46
2022-12-26T13:24:39.549Z,70.58
2022-12-26T13:27:22.386Z,70.58
2022-12-26T13:29:50.592Z,70.54
2022-12-26T13:32:30.855Z,70.60
2022-12-26T13:35:01.462Z,70.43
2022-12-26T13:37:32.420Z,70.46
2022-12-26T13:40:03.183Z,70.51
2022-12-26T13:43:17.656Z,70.43
2022-12-26T13:45:50.077Z,70.46
2022-12-26T13:48:18.103Z,70.64
2022-12-26T13:51:00.442Z,70.47
2022-12-26T13:53:41.953Z,70.62
2022-12-26T13:56:19.004Z,70.54
2022-12-26T13:59:03.308Z,70.52
2022-12-26T14:02:02.897Z,70.57
2022-12-26T14:05:16.245Z,70.64
2022-12-26T14:07:55.191Z,70.73
2022-12-26T14:11:04.442Z,70.67
2022-12-26T14:13:59.515Z,70.74
2022-12-26T14:16:41.199Z,70.68
2022-12-26T14:19:45.391Z,70.72
2022-12-26T14:22:35.116Z,70.81
2022-12-26T14:25:09.879Z,70.71
2022-12-26T14:27:51.708Z,70.78
2022-12-26T14:30:21.978Z,70.81
2022-12-26T14:33:02.037Z,70.87
2022-12-26T14:35:45.840Z,70.92
2022-12-26T14:38:48.942Z,70.88
2022-12-26T14:41:37.805Z,71.01
2022-12-26T14:44:38.092Z,70.85
2022-12-26T14:47:06.174Z,70.87
2022-12-26T14:49:36.033Z,70.92
2022-12-26T14:52:26.111Z,71.08
2022-12-26T14:54:55.418Z,71.04
2022-12-26T14:57:47.599Z,71.09
2022-12-26T15:00:15.916Z,71.21
2022-12-26T15:02:52.745Z,71.06
2022-12-26T15:05:26.036Z,71.35
2022-12-26T15:08:29.378Z,71.32
2022-12-26T15:11:09.573Z,71.37
2022-12-26T15:26:22.991Z,71.56
2022-12-26T15:29:07.967Z,71.40
2022-12-26T15:32:09.223Z,71.41
2022-12-26T15:35:10.023Z,71.57
2022-12-26T15:37:44.456Z,71.73
2022-12-26T15:40:21.561Z,71.79
2022-12-26T15:43:14.082Z,71.84
2022-12-26T15:45:48.374Z,71.89
2022-12-26T15:48:23.997Z,72.02
2022-12-26T15:51:01.922Z,72.11
2022-12-26T15:53:50.481Z,72.12
2022-12-26T15:56:35.425Z,72.15
2022-12-26T15:59:40.838Z,72.28
2022-12-26T16:02:32.346Z,72.46
2022-12-26T16:05:11.781Z,72.52
2022-12-26T16:07:51.197Z,72.58
2022-12-26T16:10:23.623Z,72.76
2022-12-26T16:13:22.180Z,72.85
2022-12-26T16:15:56.877Z,72.97
2022-12-26T16:18:31.501Z,73.19
2022-12-26T16:21:19.870Z,73.20
2022-12-26T16:23:48.961Z,73.18
2022-12-26T16:26:23.319Z,73.27
2022-12-26T16:28:50.039Z,73.39
2022-12-26T16:31:22.941Z,73.34
2022-12-26T16:33:52.328Z,73.28
2022-12-26T16:36:28.448Z,73.35
2022-12-26T16:38:55.753Z,73.34
2022-12-26T16:41:22.299Z,73.32
2022-12-26T16:43:50.494Z,73.30
2022-12-26T16:46:22.625Z,73.26
2022-12-26T16:48:56.709Z,73.30
2022-12-26T16:51:54.219Z,73.28
2022-12-26T16:54:20.709Z,73.15
2022-12-26T16:57:01.841Z,73.02
2022-12-26T16:59:37.832Z,72.85
2022-12-26T17:02:05.470Z,72.84
2022-12-26T17:04:32.202Z,72.86
2022-12-26T17:07:15.842Z,72.58
2022-12-26T17:09:49.106Z,72.77
2022-12-26T17:12:37.281Z,72.57
2022-12-26T17:15:05.931Z,72.61
2022-12-26T17:17:37.501Z,72.49
2022-12-26T17:20:22.400Z,72.62
2022-12-26T17:22:53.820Z,72.57
2022-12-26T17:25:30.616Z,72.52
2022-12-26T17:28:27.776Z,72.44
2022-12-26T17:30:54.701Z,72.43
2022-12-26T17:33:26.840Z,72.51
2022-12-26T17:39:08.904Z,72.32
2022-12-26T17:41:35.584Z,72.26
2022-12-26T17:44:43.199Z,72.27
2022-12-26T17:47:25.650Z,72.37
2022-12-26T17:49:53.456Z,72.26
2022-12-26T17:52:24.295Z,72.18
2022-12-26T17:54:52.096Z,72.18
2022-12-26T17:57:27.576Z,72.15
2022-12-26T17:59:54.851Z,72.21
2022-12-26T18:02:22.285Z,72.20
2022-12-26T18:04:49.837Z,72.17
2022-12-26T18:07:31.004Z,72.10
2022-12-26T18:10:00.718Z,71.98
2022-12-26T18:12:27.453Z,72.08
2022-12-26T18:14:59.450Z,72.12
2022-12-26T18:17:32.535Z,72.10
2022-12-26T18:19:59.878Z,72.01
2022-12-26T18:22:26.570Z,72.02
2022-12-26T18:24:53.131Z,72.27
2022-12-26T18:27:24.830Z,72.35
2022-12-26T18:29:51.343Z,72.19
2022-12-26T18:32:23.982Z,72.22
2022-12-26T18:34:51.263Z,72.27
2022-12-26T18:37:19.234Z,72.29
2022-12-26T18:39:45.952Z,72.14
2022-12-26T18:42:14.164Z,72.33
2022-12-26T18:44:42.126Z,72.38
2022-12-26T18:47:14.434Z,72.29
2022-12-26T18:49:41.434Z,72.29
2022-12-26T18:52:11.387Z,72.26
2022-12-26T18:54:44.629Z,72.41
2022-12-26T18:57:18.079Z,72.33
2022-12-26T18:59:45.713Z,72.36
2022-12-26T19:02:21.557Z,72.53
2022-12-26T19:04:48.925Z,72.33
2022-12-26T19:07:19.479Z,72.33
2022-12-26T19:09:48.937Z,72.41
2022-12-26T19:12:16.272Z,72.23
2022-12-26T19:14:44.600Z,72.43
2022-12-26T19:17:12.348Z,72.45
2022-12-26T19:19:38.950Z,72.41
2022-12-26T19:22:05.635Z,72.52
2022-12-26T19:24:35.819Z,72.45
2022-12-26T19:27:03.070Z,72.35
2022-12-26T19:29:29.809Z,72.36
2022-12-26T19:31:56.825Z,72.47
2022-12-26T19:34:23.751Z,72.43
2022-12-26T19:36:50.490Z,72.53
2022-12-26T19:39:17.332Z,72.35
2022-12-26T19:41:43.859Z,72.33
2022-12-26T19:44:10.733Z,72.29
2022-12-26T19:46:37.534Z,72.19
2022-12-26T19:49:04.055Z,72.36
2022-12-26T19:51:30.544Z,72.42
2022-12-26T19:53:57.197Z,72.49
2022-12-26T19:56:26.555Z,72.59
2022-12-26T19:58:56.675Z,72.47
2022-12-26T20:01:30.742Z,72.35
2022-12-26T20:03:59.794Z,72.51
2022-12-26T20:06:28.177Z,72.49
2022-12-26T20:08:59.653Z,72.66
2022-12-26T20:11:32.191Z,72.68
2022-12-26T20:14:00.908Z,72.63
2022-12-26T20:19:15.064Z,72.49
2022-12-26T20:21:41.718Z,72.66
2022-12-26T20:24:10.145Z,72.78
2022-12-26T20:26:38.586Z,72.65
2022-12-26T20:29:08.043Z,72.63
2022-12-26T20:31:35.270Z,72.76
2022-12-26T20:34:03.463Z,72.79
2022-12-26T20:36:35.762Z,72.84
2022-12-26T20:39:06.289Z,73.02
2022-12-26T20:41:34.342Z,73.20
2022-12-26T20:44:03.050Z,73.27
2022-12-26T20:46:31.830Z,73.44
2022-12-26T20:49:01.183Z,73.51
2022-12-26T20:51:36.539Z,73.41
2022-12-26T20:54:05.184Z,73.53
2022-12-26T20:56:31.833Z,73.61
2022-12-26T20:58:58.898Z,73.77
2022-12-26T21:01:26.263Z,73.76
2022-12-26T21:03:55.278Z,73.89
2022-12-26T21:06:29.337Z,73.88
2022-12-26T21:08:57.134Z,73.86
2022-12-26T21:11:44.850Z,73.87
2022-12-26T21:14:14.734Z,74.07
2022-12-26T21:16:44.671Z,74.19
2022-12-26T21:19:15.459Z,74.14
2022-12-26T21:21:45.600Z,74.28
2022-12-26T21:24:16.007Z,74.28
2022-12-26T21:26:44.007Z,74.28
2022-12-26T21:29:16.891Z,74.23
2022-12-26T21:31:44.245Z,74.29
2022-12-26T21:34:14.219Z,74.51
2022-12-26T21:37:02.687Z,74.63
2022-12-26T21:39:30.381Z,74.59
2022-12-26T21:41:57.063Z,74.67
2022-12-26T21:44:23.724Z,74.66
2022-12-26T21:46:50.208Z,74.80
2022-12-26T21:49:16.826Z,74.81
2022-12-26T21:51:43.390Z,74.85
2022-12-26T21:54:28.570Z,74.94
2022-12-26T21:56:55.167Z,74.91
2022-12-26T21:59:40.445Z,74.92
2022-12-26T22:02:31.355Z,74.74
2022-12-26T22:04:59.129Z,74.57
2022-12-26T22:07:26.246Z,74.58
2022-12-26T22:09:52.852Z,74.64
2022-12-26T22:12:38.431Z,74.74
2022-12-26T22:15:25.929Z,74.77
2022-12-26T22:17:52.558Z,74.83
2022-12-26T22:20:19.128Z,74.83
2022-12-26T22:22:45.582Z,74.87
2022-12-26T22:25:12.079Z,74.79
2022-12-26T22:27:38.547Z,74.80
2022-12-26T22:30:05.419Z,74.99
2022-12-26T22:32:32.047Z,75.04
2022-12-26T22:34:58.506Z,74.89
2022-12-26T22:37:25.001Z,74.73
2022-12-26T22:39:51.606Z,74.75
2022-12-26T22:42:18.069Z,74.77
2022-12-26T22:44:44.560Z,74.59
2022-12-26T22:47:11.012Z,74.45
2022-12-26T22:49:37.528Z,74.63
2022-12-26T22:52:04.212Z,74.42
2022-12-26T22:54:30.733Z,74.48
2022-12-26T22:56:57.289Z,74.07
2022-12-26T22:59:57.831Z,73.85
2022-12-26T23:02:10.418Z,73.92
2022-12-26T23:04:37.642Z,74.16
2022-12-26T23:07:04.529Z,74.27
2022-12-26T23:09:31.187Z,74.41
2022-12-26T23:12:16.829Z,74.38
2022-12-26T23:14:44.164Z,74.50
2022-12-26T23:17:35.407Z,74.52
2022-12-26T23:20:22.658Z,74.48
2022-12-26T23:22:49.628Z,74.62
2022-12-26T23:25:16.330Z,74.76
2022-12-26T23:28:01.558Z,74.70
2022-12-26T23:30:30.709Z,74.75
2022-12-26T23:32:58.357Z,74.98
2022-12-26T23:35:26.189Z,75.15
2022-12-26T23:37:53.602Z,75.08
2022-12-26T23:40:21.447Z,75.30
2022-12-26T23:42:48.178Z,75.42
2022-12-26T23:45:14.706Z,75.41
2022-12-26T23:47:42.714Z,75.55
2022-12-26T23:50:11.137Z,75.48
2022-12-26T23:52:38.074Z,75.79
2022-12-26T23:55:05.099Z,75.90
2022-12-26T23:57:31.768Z,75.88
2022-12-26T23:59:58.435Z,75.90
